AirNav   Air Wisconsin Up To $57,000 Bonus
 
 1040 users online  

39TX Sony Microelectronics Helistop
San Antonio, Texas, USA

GOING TO SAN ANTONIO?


FAA INFORMATION EFFECTIVE 22 APRIL 2021

Location

FAA Identifier: 39TX
Lat/Long: 29-26-40.8360N 098-38-24.0750W
29-26.680600N 098-38.401250W
29.4446767,-98.6400208
(estimated)
Elevation: 765 ft. / 233 m (estimated)
Variation: 07E (1985)
From city: 8 miles W of SAN ANTONIO, TX
Time zone: UTC -5 (UTC -6 during Standard Time)
Zip code: 78251

Heliport Operations

Heliport use: Private use. Permission required prior to landing
Activation date: 07/1990
Control tower: no
ARTCC: HOUSTON CENTER
FSS: SAN ANGELO FLIGHT SERVICE STATION
Attendance: 0800-1700
Wind indicator: yes
Segmented circle: yes

Heliport Communications

WX ASOS at SAT (10 nm NE): PHONE 210-805-5583
WX ASOS at SSF (11 nm SE): PHONE 210-927-9391
WX AWOS-3 at CVB (13 nm SW): 119.25 (830-931-0232)
WX AWOS-3 at 5C1 (17 nm N): 118.725 (830-755-9099)

Nearby radio navigation aids

VOR radial/distance  VOR name  Freq  Var
SATr210/15.2SAN ANTONIO VORTAC116.8008E
SSFr308/(15.2)STINSON VOR108.4009E
RNDr251/19.1RANDOLPH VORTAC112.3005E

 
NDB name  Hdg/Dist  Freq  Var  ID
ALAMO197/10.436804EAN .- -.
DEVINE033/24.135907EHHH .... .... ....

Heliport Services

Runway Information

Helipad H1

Dimensions: 60 x 60 ft. / 18 x 18 m
Surface: asphalt
Traffic pattern: leftleft

Heliport Ownership and Management from official FAA records

Ownership: Privately-owned
Owner: SONY MICROELECTRONICS
ONE SONY PLACE
SAN ANTONIO, TX 78245
Phone 210-647-6292
Manager: ANDREW S. GILES
ONE SONY PLACE
SAN ANTONIO, TX 78245
Phone 210-647-6292

Additional Remarks

FOR CD CTC SAN ANTONIO APCH AT 210-805-5516.

Instrument Procedures

There are no published instrument procedures at 39TX.

Some nearby airports with instrument procedures:

KSKF - Kelly Field Airport (5 nm SE)
KSAT - San Antonio International Airport (10 nm NE)
KSSF - Stinson Municipal Airport (11 nm SE)
KCVB - Castroville Municipal Airport (13 nm SW)
5C1 - Boerne Stage Field Airport (17 nm N)
KRND - Randolph Air Force Base (20 nm E)
 
Loc | Ops | Rwys | IFR | FBO | Links
Com | Nav | Svcs | Stats | Notes
Area around 39TX (Sony Microelectronics Helistop)
 
Road maps at: MapQuest Bing Google
 
Aerial photo
No photo
 
Sectional chart

 
Airport distance calculator
Flying to Sony Microelectronics Helistop? Find the distance to fly.

From to 39TX

Sunrise and sunset
Times for 16-May-2021
 Local
(UTC-5)
 Zulu
(UTC)
Morning civil twilight06:1711:17
Sunrise06:4311:43
Sunset20:1901:19
Evening civil twilight20:4501:45

Current date and time
Zulu (UTC)  17-May-2021 02:08:15
Local (UTC-5)  16-May-2021 21:08:15
 
METAR
KSKF 
6nm SE 
170156Z AUTO 11007KT 10SM BKN027 25/19 A2986 RMK AO2 CIG 026 RWY34 SLP105 T02480185 $
KSAT 
11nm NE 
170203Z 13010KT 10SM BKN023 24/19 A2989 RMK AO2 T02390194 $
KSSF 
11nm SE 
170153Z 12008KT 10SM BKN026 24/20 A2986 RMK AO2 SLP102 T02440200
KCVB 
13nm SW 
170155Z AUTO 12005KT 10SM OVC028 26/19 A2990 RMK AO2 T02570187
K5C1 
17nm N 
170155Z AUTO 15005KT 10SM CLR 22/18 A2991 RMK AO1
KRND 
20nm E 
170156Z AUTO 15006KT 10SM SCT021 23/20 A2987 RMK AO2 SLP108 T02270200
TAF
KSKF 
6nm SE 
161800Z 1618/1724 18012KT 9999 SCT030 SCT110 QNH2988INS BECMG 1620/1621 17012G18KT 9999 BKN030 QNH2981INS BECMG 1700/1701 14012KT 9999 BKN010 QNH2986INS BECMG 1702/1703 VRB05KT 3200 -DZ BR OVC003 QNH2988INS BECMG 1715/1716 17007KT 9000 BR BKN010 QNH2985INS BECMG 1716/1717 17012G18KT 9999 NSW BKN020 QNH2984INS BECMG 1717/1718 16012G22KT 9999 VCSH BKN030 QNH2976INS BECMG 1721/1722 13018KT 9999 NSW FEW040 QNH2975INS TX30/1621Z TN21/1712Z
KSAT 
11nm NE 
161738Z 1618/1724 13010KT P6SM SCT015 SCT030 FM162000 14010KT P6SM BKN040 FM170100 12012KT P6SM BKN015 FM170500 14011KT 5SM BR BKN008 FM171700 14009KT P6SM BKN015 FM172000 15012KT P6SM VCSH SCT025
KSSF 
11nm SE 
161738Z 1618/1718 11007KT P6SM SCT015 SCT025 FM162000 13010KT P6SM BKN040 FM170200 12009KT P6SM BKN015 FM170400 13013KT 5SM BR BKN008 FM171700 14009KT P6SM BKN015
NOTAMs
Click for the latest NOTAMs
NOTAMs are issued by the DoD/FAA and will open in a separate window not controlled by AirNav.

 

 
 

Would you like to see your business listed on this page?

 If your business provides an interesting product or service to pilots, flight crews, aircraft, or users of the Sony Microelectronics Helistop, you should consider listing it here.  To start the listing process, click on the button below
 
Add a business
 

Other Pages about Sony Microelectronics Helistop

Update a link
 
Copyright © AirNav, LLC. All rights reserved. Privacy Policy  Contact